createdAt,value
2019-03-13T00:04:44.748Z,100113.92
2019-03-13T00:09:50.288Z,100121.13
2019-03-13T00:14:55.787Z,100121.72
2019-03-13T00:20:01.196Z,100117.53
2019-03-13T00:25:06.719Z,100121.16
2019-03-13T00:30:12.275Z,100124.73
2019-03-13T00:35:17.687Z,100126.78
2019-03-13T00:40:23.075Z,100136.53
2019-03-13T00:45:28.585Z,100136.05
2019-03-13T00:50:34.007Z,100137.00
2019-03-13T00:55:39.357Z,100126.77
2019-03-13T01:00:54.422Z,100126.06
2019-03-13T01:06:02.775Z,100122.70
2019-03-13T01:11:08.180Z,100136.45
2019-03-13T01:16:13.572Z,100120.25
2019-03-13T01:21:18.923Z,100127.09
2019-03-13T01:26:24.346Z,100128.75
2019-03-13T01:31:46.028Z,100123.98
2019-03-13T01:36:51.417Z,100131.87
2019-03-13T01:41:56.830Z,100142.31
2019-03-13T01:47:02.201Z,100141.56
2019-03-13T01:52:07.565Z,100145.89
2019-03-13T01:57:12.946Z,100151.23
2019-03-13T02:02:18.389Z,100143.67
2019-03-13T02:07:23.855Z,100131.73
2019-03-13T02:12:29.211Z,100133.48
2019-03-13T02:17:34.582Z,100125.30
2019-03-13T02:22:40.013Z,100126.55
2019-03-13T02:27:45.500Z,100130.28
2019-03-13T02:32:51.205Z,100121.17
2019-03-13T02:37:56.799Z,100118.13
2019-03-13T02:43:02.426Z,100120.73
2019-03-13T02:48:08.008Z,100120.18
2019-03-13T02:53:13.753Z,100117.98
2019-03-13T02:58:19.364Z,100114.34
2019-03-13T03:03:31.539Z,100113.17
2019-03-13T03:08:37.209Z,100116.35
2019-03-13T03:13:42.790Z,100117.09
2019-03-13T03:18:48.551Z,100105.01
2019-03-13T03:23:54.269Z,100103.52
2019-03-13T03:28:59.952Z,100097.23
2019-03-13T03:34:06.009Z,100089.69
2019-03-13T03:39:11.720Z,100093.30
2019-03-13T03:44:17.335Z,100093.34
2019-03-13T03:49:22.954Z,100100.39
2019-03-13T03:54:28.571Z,100104.24
2019-03-13T03:59:34.262Z,100097.41
2019-03-13T04:04:39.937Z,100094.25
2019-03-13T04:09:45.580Z,100097.55
2019-03-13T04:14:51.283Z,100097.03
2019-03-13T04:19:57.026Z,100106.73
2019-03-13T04:25:35.137Z,100116.28
2019-03-13T04:30:40.853Z,100108.80
2019-03-13T04:35:46.428Z,100108.14
2019-03-13T04:40:52.079Z,100104.42
2019-03-13T04:45:57.681Z,100104.91
2019-03-13T04:51:03.405Z,100106.70
2019-03-13T04:56:09.031Z,100096.66
2019-03-13T05:01:14.690Z,100092.47
2019-03-13T05:06:24.429Z,100091.87
2019-03-13T05:11:30.076Z,100089.40
2019-03-13T05:16:35.689Z,100097.69
2019-03-13T05:21:41.321Z,100088.50
2019-03-13T05:26:46.941Z,100072.62
2019-03-13T05:31:53.482Z,100082.08
2019-03-13T05:36:59.064Z,100081.30
2019-03-13T05:42:04.842Z,100092.97
2019-03-13T05:47:10.571Z,100099.43
2019-03-13T05:52:16.229Z,100092.75
2019-03-13T05:57:21.895Z,100086.94
2019-03-13T06:02:27.607Z,100084.04
2019-03-13T06:07:33.201Z,100076.94
2019-03-13T06:12:39.021Z,100085.25
2019-03-13T06:17:44.846Z,100086.20
2019-03-13T06:22:50.499Z,100086.50
2019-03-13T06:27:56.291Z,100077.70
2019-03-13T06:33:01.872Z,100083.92
2019-03-13T06:38:07.550Z,100071.01
2019-03-13T06:43:13.183Z,100075.64
2019-03-13T06:48:18.892Z,100082.33
2019-03-13T06:53:24.720Z,100087.38
2019-03-13T06:58:51.989Z,100079.69
2019-03-13T07:04:16.511Z,100077.05
2019-03-13T07:09:39.797Z,100071.52
2019-03-13T07:15:22.236Z,100064.77
2019-03-13T07:20:43.272Z,100068.24
2019-03-13T07:25:58.092Z,100064.78
2019-03-13T07:31:28.489Z,100067.77
2019-03-13T07:36:49.324Z,100070.02
2019-03-13T07:42:12.351Z,100062.42
2019-03-13T07:47:33.940Z,100048.67
2019-03-13T07:52:56.828Z,100048.67
2019-03-13T07:58:15.856Z,100037.69
2019-03-13T08:03:43.353Z,100045.14
2019-03-13T08:09:10.709Z,100056.57
2019-03-13T08:14:35.183Z,100062.02
2019-03-13T08:20:02.687Z,100059.31
2019-03-13T08:25:25.981Z,100063.64
2019-03-13T08:31:02.191Z,100052.67
2019-03-13T08:36:24.847Z,100045.50
2019-03-13T08:41:55.354Z,100039.06
2019-03-13T08:47:22.424Z,100042.73
2019-03-13T08:52:49.910Z,100035.41
2019-03-13T08:58:12.405Z,100022.38
2019-03-13T09:03:34.809Z,100025.98
2019-03-13T09:09:03.171Z,100018.73
2019-03-13T09:14:24.961Z,100023.83
2019-03-13T09:19:47.653Z,100031.95
2019-03-13T09:25:12.456Z,100031.80
2019-03-13T09:30:33.504Z,100024.75
2019-03-13T09:36:00.887Z,100014.81
2019-03-13T09:41:31.587Z,100029.35
2019-03-13T09:47:02.113Z,100017.20
2019-03-13T09:52:38.399Z,100020.53
2019-03-13T09:58:21.057Z,100014.21
2019-03-13T10:03:45.661Z,100001.50
2019-03-13T10:09:02.468Z,99994.27
2019-03-13T10:14:13.290Z,99990.62
2019-03-13T10:19:43.477Z,99993.92
2019-03-13T10:25:26.164Z,99984.02
2019-03-13T10:30:50.629Z,99989.55
2019-03-13T10:36:13.333Z,99992.55
2019-03-13T10:41:43.706Z,99982.76
2019-03-13T10:46:56.365Z,99996.75
2019-03-13T10:52:10.256Z,99995.96
2019-03-13T10:57:43.428Z,99991.11
2019-03-13T11:03:06.612Z,99995.49
2019-03-13T11:08:26.565Z,99989.80
2019-03-13T11:13:53.652Z,99992.84
2019-03-13T11:19:06.575Z,99989.71
2019-03-13T11:24:24.362Z,99993.72
2019-03-13T11:29:51.649Z,99996.44
2019-03-13T11:35:14.548Z,99993.86
2019-03-13T11:40:32.452Z,99990.25
2019-03-13T11:46:02.803Z,99988.45
2019-03-13T11:51:36.117Z,99989.06
2019-03-13T11:57:09.423Z,99974.77
2019-03-13T12:02:30.192Z,99978.13
2019-03-13T12:07:54.779Z,99976.09
2019-03-13T12:13:19.391Z,99958.53
2019-03-13T12:18:47.098Z,99963.80
2019-03-13T12:24:20.303Z,99961.88
2019-03-13T12:29:59.479Z,99938.95
2019-03-13T12:35:24.205Z,99946.78
2019-03-13T12:40:47.135Z,99936.64
2019-03-13T12:46:14.529Z,99929.64
2019-03-13T12:51:54.026Z,99923.56
2019-03-13T12:57:16.976Z,99922.96
2019-03-13T13:02:39.583Z,99912.45
2019-03-13T13:08:12.488Z,99922.72
2019-03-13T13:13:42.866Z,99905.23
2019-03-13T13:18:54.522Z,99915.77
2019-03-13T13:24:00.206Z,99905.27
2019-03-13T13:29:05.854Z,99911.53
2019-03-13T13:34:11.926Z,99910.34
2019-03-13T13:39:17.773Z,99911.47
2019-03-13T13:44:23.443Z,99917.82
2019-03-13T13:49:29.125Z,99920.26
2019-03-13T13:54:34.898Z,99915.28
2019-03-13T13:59:40.593Z,99908.75
2019-03-13T14:04:46.267Z,99898.16
2019-03-13T14:09:51.896Z,99902.69
2019-03-13T14:14:57.715Z,99882.77
2019-03-13T14:20:03.590Z,99893.84
2019-03-13T14:25:09.215Z,99878.96
2019-03-13T14:30:14.942Z,99880.19
2019-03-13T14:35:20.634Z,99873.27
2019-03-13T14:40:26.507Z,99867.63
2019-03-13T14:45:32.202Z,99862.13
2019-03-13T14:50:37.771Z,99866.31
2019-03-13T14:55:43.454Z,99865.14
2019-03-13T15:00:49.255Z,99874.31
2019-03-13T15:05:55.119Z,99879.30
2019-03-13T15:11:00.889Z,99889.23
2019-03-13T15:16:06.555Z,99917.63
2019-03-13T15:21:12.187Z,99934.52
2019-03-13T15:26:17.798Z,99930.70
2019-03-13T15:31:23.510Z,99918.31
2019-03-13T15:36:29.110Z,99898.00
2019-03-13T15:41:34.698Z,99899.22
2019-03-13T15:46:40.311Z,99899.71
2019-03-13T15:51:46.101Z,99892.01
2019-03-13T15:56:51.703Z,99892.33
2019-03-13T16:01:57.325Z,99888.81
2019-03-13T16:07:02.931Z,99888.66
2019-03-13T16:12:08.542Z,99898.30
2019-03-13T16:17:14.220Z,99890.64
2019-03-13T16:22:20.875Z,99917.83
2019-03-13T16:27:26.484Z,100004.52
2019-03-13T16:32:43.615Z,100045.70
2019-03-13T16:37:39.427Z,100029.48
2019-03-13T16:42:45.156Z,100003.23
2019-03-13T16:47:50.804Z,99979.85
2019-03-13T16:52:56.546Z,99979.09
2019-03-13T16:58:02.356Z,99983.70
2019-03-13T17:03:07.957Z,99993.20
2019-03-13T17:08:13.659Z,100000.03
2019-03-13T17:13:19.307Z,100006.26
2019-03-13T17:18:25.039Z,100026.72
2019-03-13T17:23:30.738Z,100035.28
2019-03-13T17:28:36.537Z,100038.17
2019-03-13T17:33:42.354Z,100038.46
2019-03-13T17:38:47.971Z,100048.69
2019-03-13T17:43:53.704Z,100061.43
2019-03-13T17:48:59.436Z,100065.81
2019-03-13T17:54:05.224Z,100084.86
2019-03-13T17:59:10.917Z,100088.29
2019-03-13T18:04:16.541Z,100090.78
2019-03-13T18:09:22.174Z,100093.80
2019-03-13T18:14:30.892Z,100100.17
2019-03-13T18:19:35.127Z,100109.67
2019-03-13T18:24:40.755Z,100120.55
2019-03-13T18:29:46.386Z,100130.20
2019-03-13T18:34:52.096Z,100148.64
2019-03-13T18:39:58.068Z,100155.38
2019-03-13T18:45:03.712Z,100157.83
2019-03-13T18:50:10.554Z,100165.00
2019-03-13T18:55:17.704Z,100179.81
2019-03-13T19:00:28.745Z,100184.41
2019-03-13T19:05:34.749Z,100191.69
2019-03-13T19:10:40.571Z,100205.08
2019-03-13T19:15:46.279Z,100216.42
2019-03-13T19:20:53.867Z,100220.69
2019-03-13T19:25:59.765Z,100234.30
2019-03-13T19:31:05.638Z,100251.14
2019-03-13T19:36:11.437Z,100256.44
2019-03-13T19:41:17.015Z,100250.20
2019-03-13T19:46:22.703Z,100258.11
2019-03-13T19:51:28.577Z,100266.77
2019-03-13T19:56:35.215Z,100273.83
2019-03-13T20:01:40.973Z,100274.36
2019-03-13T20:06:46.585Z,100290.59
2019-03-13T20:11:52.200Z,100297.77
2019-03-13T20:16:57.778Z,100302.27
2019-03-13T20:22:03.440Z,100305.47
2019-03-13T20:27:09.056Z,100312.33
2019-03-13T20:32:14.746Z,100320.19
2019-03-13T20:37:20.428Z,100321.88
2019-03-13T20:42:26.117Z,100329.92
2019-03-13T20:47:31.834Z,100336.01
2019-03-13T20:52:37.654Z,100340.85
2019-03-13T20:57:43.276Z,100361.29
2019-03-13T21:02:48.939Z,100367.38
2019-03-13T21:07:54.587Z,100380.95
2019-03-13T21:13:00.207Z,100376.83
2019-03-13T21:18:05.846Z,100387.67
2019-03-13T21:23:11.477Z,100384.51
2019-03-13T21:28:17.106Z,100400.25
2019-03-13T21:33:23.038Z,100408.84
2019-03-13T21:38:28.838Z,100410.97
2019-03-13T21:43:34.541Z,100410.74
2019-03-13T21:48:40.242Z,100410.39
2019-03-13T21:53:45.924Z,100415.59
2019-03-13T21:58:51.498Z,100417.88
2019-03-13T22:03:57.116Z,100435.64
2019-03-13T22:09:03.325Z,100434.96
2019-03-13T22:14:09.083Z,100439.80
2019-03-13T22:19:14.721Z,100441.18
2019-03-13T22:24:20.344Z,100451.80
2019-03-13T22:29:25.994Z,100459.12
2019-03-13T22:34:31.605Z,100464.94
2019-03-13T22:39:37.218Z,100466.73
2019-03-13T22:44:43.570Z,100473.89
2019-03-13T22:49:49.155Z,100491.23
2019-03-13T22:54:54.748Z,100489.17
2019-03-13T23:00:00.549Z,100482.47
2019-03-13T23:05:06.283Z,100482.55
2019-03-13T23:10:31.903Z,100495.31
2019-03-13T23:15:37.516Z,100512.13
2019-03-13T23:20:43.091Z,100513.87
2019-03-13T23:25:48.769Z,100525.27
2019-03-13T23:30:54.493Z,100530.09
2019-03-13T23:36:00.177Z,100544.23
2019-03-13T23:41:05.958Z,100558.67
2019-03-13T23:46:11.674Z,100553.73
2019-03-13T23:51:17.360Z,100548.57
2019-03-13T23:56:23.070Z,100549.33
